Accueil
METAR-TAF:

METAR-TAF

Aéroports :

Aéroport international de Bahreïn

Bahreïn, Bahreïn

latitude: 26-16N, longitude: 050-39E, altitude: 2 m

Observation

Le bulletin a été fait il y a 18 minutes, à 07:00 UTC
Vent 4 kt de ouest/sud-ouest, variant entre sud et ouest/nord-ouest
Température 32°C
Humidité 59%
Pression 1014 hPa
Visibilité: 8000 m
Ciel clair

METAR: OBBI 210700Z 24004KT 170V290 8000 SKC 32/23 Q1014 NOSIG

Heure: 10:18 (07:18 UTC)

Prévision

Le bulletin a été fait il y a 2 heures et 18 minutes, à 05:00 UTC
Prévision valable du 21 à 06 UTC au 22 à 12 UTC
Vent 5 kt de direction variable
Visibilité: 8000 m
Evoluant progressivement
du 21 à 09 UTC au 21 à 11 UTC
Vent 10 kt de nord-est
Evoluant progressivement
du 21 à 20 UTC au 21 à 22 UTC
Vent 5 kt de direction variable

TAF: OBBI 210500Z 2106/2212 VRB05KT 8000 NSC BECMG 2109/2111 04010KT BECMG 2120/2122 VRB05KT

Observations et prévisions météorologiques de plus de 4000 aéroports (messages METAR et TAF).

Les stations disponibles sont représentées par des disques jaunes et rouges sur la carte.

Passer la souris dessus pour voir le nom de la station.

Cliquer dessus pour voir les observations et prévisions météorologiques.

Pour changer de carte: cliquez sur les boutons verts avec une croix noire pour zoomer, sur le bouton vert avec un tiret pour effectuer un zoom arrière, ou sur les flèches vertes pour les cartes adjacentes.


METAR-TAF: